Donalda, Canada
Current Conditions -  °F | °C
As of 8:00 AM on Thursday 30 Oct 2014 (Local Time) from CYQF Reporting Station
Moderate Fog Moderate Fog  
Wind Chill: 18°   Ceiling: 200
Heat Index: 27°   Visibility: 0.5mi
Dew Point: 27°   Wind: 8mph
Humidity: 100%   Direction: 130°SE
Pressure: 30.2"   Gusts: NA
Location:  52.58°N, 112.57°W
Report Text: CYQF 301400Z 13007KT 1/2SM FZFG VV002 M03/M03 A3020 RMK FG8 SLP271
Loading
Personal Weather Stations






























Interactive Weather Map
Tropical Storm Tracking
New forecast layout! Learn more

10-Day Weather Forecast

Advertisements
Track Severe Weather on mobile